createdAt,value
2022-12-17T00:01:37.724Z,50.64
2022-12-17T00:04:24.230Z,50.48
2022-12-17T00:07:09.448Z,51.23
2022-12-17T00:10:06.274Z,50.86
2022-12-17T00:12:51.547Z,50.78
2022-12-17T00:15:37.213Z,50.96
2022-12-17T00:18:23.550Z,51.03
2022-12-17T00:21:13.431Z,50.78
2022-12-17T00:23:58.694Z,51.07
2022-12-17T00:26:43.776Z,51.10
2022-12-17T00:29:29.227Z,51.26
2022-12-17T00:32:14.630Z,51.13
2022-12-17T00:35:03.485Z,51.45
2022-12-17T00:40:49.603Z,51.03
2022-12-17T00:43:34.929Z,51.52
2022-12-17T00:46:20.296Z,51.71
2022-12-17T00:49:05.513Z,51.83
2022-12-17T00:51:50.604Z,52.13
2022-12-17T00:54:37.196Z,51.97
2022-12-17T00:57:22.270Z,51.56
2022-12-17T01:00:07.707Z,51.74
2022-12-17T01:02:52.926Z,51.79
2022-12-17T01:05:39.952Z,52.03
2022-12-17T01:08:27.782Z,51.94
2022-12-17T01:11:18.304Z,51.60
2022-12-17T01:14:03.772Z,51.80
2022-12-17T01:16:48.977Z,51.38
2022-12-17T01:19:34.504Z,51.29
2022-12-17T01:22:19.475Z,51.39
2022-12-17T01:25:04.850Z,51.77
2022-12-17T01:27:51.238Z,51.68
2022-12-17T01:30:37.041Z,51.74
2022-12-17T01:33:22.510Z,52.03
2022-12-17T01:36:07.581Z,52.16
2022-12-17T01:38:52.845Z,52.23
2022-12-17T01:41:38.426Z,52.04
2022-12-17T01:45:02.310Z,52.42
2022-12-17T01:50:21.220Z,51.86
2022-12-17T01:53:06.467Z,52.16
2022-12-17T01:55:51.904Z,52.21
2022-12-17T01:58:36.511Z,52.51
2022-12-17T02:01:23.509Z,52.18
2022-12-17T02:04:08.965Z,52.51
2022-12-17T02:06:54.293Z,52.43
2022-12-17T02:09:42.642Z,52.28
2022-12-17T02:12:30.676Z,52.10
2022-12-17T02:15:18.746Z,52.07
2022-12-17T02:18:08.281Z,51.59
2022-12-17T02:20:56.172Z,51.52
2022-12-17T02:23:49.403Z,51.85
2022-12-17T02:26:36.947Z,51.50
2022-12-17T02:29:23.554Z,51.81
2022-12-17T02:32:08.860Z,51.60
2022-12-17T02:35:01.974Z,52.33
2022-12-17T02:37:47.243Z,51.35
2022-12-17T02:40:32.584Z,51.71
2022-12-17T02:43:17.702Z,52.42
2022-12-17T02:46:04.935Z,51.75
2022-12-17T02:48:50.312Z,51.90
2022-12-17T02:51:35.667Z,51.76
2022-12-17T02:54:22.131Z,51.55
2022-12-17T02:57:07.427Z,51.48
2022-12-17T02:59:53.838Z,51.35
2022-12-17T03:02:40.360Z,51.13
2022-12-17T03:05:44.641Z,51.20
2022-12-17T03:08:31.036Z,51.59
2022-12-17T03:11:16.286Z,51.34
2022-12-17T03:14:01.412Z,51.21
2022-12-17T03:16:46.880Z,51.40
2022-12-17T03:19:34.600Z,51.50
2022-12-17T03:22:19.930Z,51.23
2022-12-17T03:25:05.363Z,51.45
2022-12-17T03:27:50.418Z,51.52
2022-12-17T03:30:37.322Z,51.38
2022-12-17T03:33:26.407Z,51.06
2022-12-17T03:36:13.320Z,51.33
2022-12-17T03:38:58.692Z,51.29
2022-12-17T03:41:44.024Z,51.89
2022-12-17T03:44:29.035Z,51.27
2022-12-17T03:47:14.264Z,51.33
2022-12-17T03:49:59.679Z,51.72
2022-12-17T03:52:46.208Z,51.85
2022-12-17T03:55:31.762Z,51.52
2022-12-17T03:58:17.175Z,51.50
2022-12-17T04:01:02.572Z,51.26
2022-12-17T04:03:48.049Z,51.41
2022-12-17T04:06:34.181Z,51.33
2022-12-17T04:09:21.222Z,51.40
2022-12-17T04:12:06.561Z,51.24
2022-12-17T04:14:51.960Z,51.34
2022-12-17T04:17:37.062Z,50.71
2022-12-17T04:20:22.953Z,51.36
2022-12-17T04:23:22.725Z,51.52
2022-12-17T04:26:09.246Z,50.82
2022-12-17T04:28:54.674Z,50.91
2022-12-17T04:31:45.297Z,51.19
2022-12-17T04:34:30.651Z,51.09
2022-12-17T04:37:16.203Z,51.05
2022-12-17T04:40:01.560Z,51.39
2022-12-17T04:42:48.085Z,51.00
2022-12-17T04:45:33.460Z,51.24
2022-12-17T04:48:22.038Z,51.19
2022-12-17T04:51:07.470Z,50.86
2022-12-17T04:53:52.550Z,50.72
2022-12-17T04:56:39.063Z,50.99
2022-12-17T04:59:25.572Z,50.85
2022-12-17T05:02:10.259Z,51.34
2022-12-17T05:04:55.829Z,51.71
2022-12-17T05:07:43.529Z,51.08
2022-12-17T05:10:28.715Z,51.50
2022-12-17T05:13:13.468Z,51.17
2022-12-17T05:16:00.325Z,50.73
2022-12-17T05:18:45.541Z,51.03
2022-12-17T05:21:33.532Z,50.61
2022-12-17T05:24:19.196Z,50.98
2022-12-17T05:27:04.429Z,51.46
2022-12-17T05:29:49.691Z,51.02
2022-12-17T05:32:37.363Z,50.82
2022-12-17T05:35:22.822Z,51.44
2022-12-17T05:38:08.097Z,50.70
2022-12-17T05:40:53.578Z,50.72
2022-12-17T05:43:39.105Z,50.94
2022-12-17T05:46:24.566Z,50.74
2022-12-17T05:49:11.467Z,51.21
2022-12-17T05:51:56.742Z,51.15
2022-12-17T05:54:42.966Z,51.41
2022-12-17T05:57:28.311Z,51.27
2022-12-17T06:00:13.684Z,50.52
2022-12-17T06:02:58.976Z,50.12
2022-12-17T06:05:45.455Z,50.20
2022-12-17T06:08:32.781Z,50.75
2022-12-17T06:11:18.918Z,51.11
2022-12-17T06:14:05.280Z,51.18
2022-12-17T06:16:50.682Z,51.56
2022-12-17T06:19:36.131Z,51.42
2022-12-17T06:22:23.629Z,50.96
2022-12-17T06:25:09.060Z,50.99
2022-12-17T06:27:50.730Z,51.36
2022-12-17T06:30:36.132Z,50.92
2022-12-17T06:33:23.160Z,51.24
2022-12-17T06:36:08.566Z,51.12
2022-12-17T06:38:55.125Z,51.06
2022-12-17T06:41:40.379Z,51.01
2022-12-17T06:44:25.762Z,50.65
2022-12-17T06:47:11.309Z,50.73
2022-12-17T06:50:01.102Z,50.61
2022-12-17T06:52:49.008Z,50.40
2022-12-17T06:55:35.769Z,51.15
2022-12-17T06:58:20.887Z,51.04
2022-12-17T07:01:06.362Z,50.57
2022-12-17T07:03:51.927Z,50.50
2022-12-17T07:06:42.424Z,50.68
2022-12-17T07:09:27.852Z,50.96
2022-12-17T07:12:14.700Z,50.87
2022-12-17T07:15:00.090Z,50.93
2022-12-17T07:17:45.454Z,50.63
2022-12-17T07:20:31.690Z,50.46
2022-12-17T07:23:17.237Z,50.97
2022-12-17T07:26:02.513Z,50.62
2022-12-17T07:28:49.026Z,51.12
2022-12-17T07:31:34.649Z,50.80
2022-12-17T07:34:20.129Z,51.10
2022-12-17T07:37:05.563Z,50.67
2022-12-17T07:39:50.975Z,50.72
2022-12-17T07:42:36.667Z,50.28
2022-12-17T07:45:25.417Z,50.30
2022-12-17T07:48:11.415Z,50.43
2022-12-17T07:50:56.924Z,50.12
2022-12-17T07:53:42.421Z,50.36
2022-12-17T07:56:28.021Z,50.24
2022-12-17T07:59:14.799Z,50.24
2022-12-17T08:02:03.936Z,49.50
2022-12-17T08:04:55.054Z,49.61
2022-12-17T08:10:08.131Z,49.39
2022-12-17T08:12:53.460Z,49.94
2022-12-17T08:15:38.794Z,49.35
2022-12-17T08:18:26.883Z,49.54
2022-12-17T08:21:12.417Z,49.14
2022-12-17T08:23:57.942Z,49.51
2022-12-17T08:26:47.822Z,49.77
2022-12-17T08:29:33.475Z,48.22
2022-12-17T08:32:18.953Z,47.07
2022-12-17T08:35:05.467Z,44.90
2022-12-17T08:38:02.495Z,43.76
2022-12-17T08:40:48.083Z,41.89
2022-12-17T08:43:33.621Z,38.98
2022-12-17T08:46:19.280Z,37.74
2022-12-17T08:49:04.554Z,36.45
2022-12-17T08:51:53.693Z,35.09
2022-12-17T08:54:38.992Z,34.45
2022-12-17T08:57:31.350Z,33.15
2022-12-17T09:00:17.425Z,32.85
2022-12-17T09:03:02.993Z,31.84
2022-12-17T09:05:49.656Z,30.82
2022-12-17T09:08:38.270Z,29.96
2022-12-17T09:11:23.531Z,28.94
2022-12-17T09:14:09.212Z,28.44
2022-12-17T09:16:54.644Z,27.61
2022-12-17T09:19:43.162Z,26.90
2022-12-17T09:22:28.798Z,25.63
2022-12-17T09:25:15.762Z,25.31
2022-12-17T09:28:16.389Z,25.53
2022-12-17T09:31:02.524Z,24.19
2022-12-17T09:33:47.921Z,24.38
2022-12-17T09:36:36.916Z,23.36
2022-12-17T09:39:22.368Z,23.04
2022-12-17T09:42:13.902Z,22.22
2022-12-17T09:45:02.149Z,21.85
2022-12-17T09:47:52.891Z,21.10
2022-12-17T09:50:38.401Z,20.94
2022-12-17T09:53:31.917Z,20.43
2022-12-17T09:56:17.510Z,20.12
2022-12-17T09:59:04.444Z,19.74
2022-12-17T10:01:52.624Z,19.27
2022-12-17T10:04:39.251Z,19.20
2022-12-17T10:07:24.926Z,18.51
2022-12-17T10:10:16.731Z,18.01
2022-12-17T10:13:09.210Z,17.83
2022-12-17T10:15:56.100Z,17.82
2022-12-17T10:18:41.518Z,17.44
2022-12-17T10:21:29.039Z,17.40
2022-12-17T10:24:23.433Z,16.50
2022-12-17T10:27:08.853Z,16.71
2022-12-17T10:29:54.165Z,16.55
2022-12-17T10:32:42.975Z,16.56
2022-12-17T10:35:33.278Z,16.20
2022-12-17T10:38:19.189Z,15.76
2022-12-17T10:41:05.399Z,15.50
2022-12-17T10:44:06.531Z,15.31
2022-12-17T10:46:52.811Z,15.76
2022-12-17T10:49:41.384Z,15.34
2022-12-17T10:52:37.540Z,15.32
2022-12-17T10:55:24.213Z,14.98
2022-12-17T10:58:09.835Z,14.82
2022-12-17T11:00:56.639Z,14.40
2022-12-17T11:03:48.036Z,14.66
2022-12-17T11:06:42.196Z,14.40
2022-12-17T11:09:34.661Z,13.78
2022-12-17T11:12:21.989Z,13.88
2022-12-17T11:15:07.157Z,14.13
2022-12-17T11:18:00.812Z,13.73
2022-12-17T11:20:49.670Z,13.42
2022-12-17T11:23:37.920Z,13.07
2022-12-17T11:26:25.254Z,13.12
2022-12-17T11:29:10.503Z,12.95
2022-12-17T11:32:07.028Z,13.32
2022-12-17T11:34:59.422Z,12.53
2022-12-17T11:37:46.451Z,12.36
2022-12-17T11:40:39.054Z,12.87
2022-12-17T11:43:30.670Z,12.33
2022-12-17T11:46:18.479Z,12.62
2022-12-17T11:49:04.771Z,11.76
2022-12-17T11:51:52.042Z,12.17
2022-12-17T11:54:41.344Z,12.08
2022-12-17T11:57:34.889Z,11.40
2022-12-17T12:00:20.755Z,11.38
2022-12-17T12:03:11.953Z,11.58
2022-12-17T12:06:03.187Z,11.05
2022-12-17T12:08:49.334Z,10.95
2022-12-17T12:11:41.224Z,11.13
2022-12-17T12:14:33.776Z,10.46
2022-12-17T12:17:34.111Z,11.09
2022-12-17T12:20:22.079Z,10.86
2022-12-17T12:23:09.557Z,10.76
2022-12-17T12:25:57.496Z,10.94
2022-12-17T12:28:55.144Z,11.14
2022-12-17T12:31:45.000Z,11.15
2022-12-17T12:34:30.642Z,11.33
2022-12-17T12:37:15.988Z,12.12
2022-12-17T12:40:04.162Z,12.34
2022-12-17T12:42:51.554Z,13.13
2022-12-17T12:45:57.565Z,13.48
2022-12-17T12:48:50.230Z,13.89
2022-12-17T12:51:37.332Z,14.25
2022-12-17T12:54:39.764Z,15.16
2022-12-17T12:57:46.415Z,15.95
2022-12-17T13:00:43.051Z,16.92
2022-12-17T13:03:39.376Z,18.43
2022-12-17T13:06:08.860Z,19.62
2022-12-17T13:08:36.824Z,20.95
2022-12-17T13:11:11.997Z,22.26
2022-12-17T13:13:55.899Z,23.77
2022-12-17T13:16:33.528Z,24.88
2022-12-17T13:19:06.329Z,25.59
2022-12-17T13:21:35.973Z,26.66
2022-12-17T13:24:11.802Z,27.42
2022-12-17T13:26:45.955Z,28.87
2022-12-17T13:29:20.816Z,28.33
2022-12-17T13:31:54.226Z,29.62
2022-12-17T13:34:26.009Z,29.26
2022-12-17T13:36:57.802Z,30.57
2022-12-17T13:39:32.530Z,30.58
2022-12-17T13:42:00.203Z,30.76
2022-12-17T13:44:30.633Z,31.40
2022-12-17T13:47:01.052Z,31.67
2022-12-17T13:49:29.892Z,31.89
2022-12-17T13:52:11.582Z,32.49
2022-12-17T13:54:40.734Z,32.94
2022-12-17T13:57:09.550Z,32.76
2022-12-17T13:59:37.286Z,33.19
2022-12-17T14:02:05.098Z,33.48
2022-12-17T14:04:33.139Z,33.36
2022-12-17T14:07:01.304Z,34.13
2022-12-17T14:09:33.272Z,33.64
2022-12-17T14:12:18.288Z,34.04
2022-12-17T14:17:21.507Z,34.53
2022-12-17T14:19:49.719Z,35.01
2022-12-17T14:22:20.332Z,34.65
2022-12-17T14:24:49.953Z,34.91
2022-12-17T14:27:26.241Z,35.36
2022-12-17T14:29:54.359Z,35.36
2022-12-17T14:32:27.002Z,35.37
2022-12-17T14:35:00.475Z,35.03
2022-12-17T14:37:28.440Z,36.03
2022-12-17T14:40:02.227Z,36.04
2022-12-17T14:42:30.458Z,35.22
2022-12-17T14:45:02.939Z,36.74
2022-12-17T14:47:31.342Z,35.60
2022-12-17T14:50:05.240Z,36.19
2022-12-17T14:52:38.690Z,36.80
2022-12-17T14:55:27.484Z,37.62
2022-12-17T14:57:55.852Z,37.53
2022-12-17T15:00:23.726Z,37.55
2022-12-17T15:02:53.052Z,38.00
2022-12-17T15:05:20.829Z,37.98
2022-12-17T15:07:48.676Z,37.91
2022-12-17T15:10:20.135Z,37.46
2022-12-17T15:12:51.420Z,37.74
2022-12-17T15:15:20.907Z,38.77
2022-12-17T15:17:48.845Z,39.00
2022-12-17T15:20:17.907Z,39.25
2022-12-17T15:22:45.908Z,39.57
2022-12-17T15:25:13.978Z,39.36
2022-12-17T15:27:41.882Z,39.57
2022-12-17T15:30:14.598Z,40.08
2022-12-17T15:32:42.518Z,40.16
2022-12-17T15:35:10.794Z,40.63
2022-12-17T15:37:38.652Z,40.17
2022-12-17T15:40:07.270Z,40.12
2022-12-17T15:42:52.862Z,40.06
2022-12-17T15:45:23.098Z,40.37
2022-12-17T15:47:51.448Z,40.74
2022-12-17T15:50:19.311Z,40.14
2022-12-17T15:52:46.991Z,40.10
2022-12-17T15:55:14.908Z,40.35
2022-12-17T15:57:42.850Z,40.34
2022-12-17T16:00:11.685Z,40.68
2022-12-17T16:02:41.444Z,40.96
2022-12-17T16:05:09.983Z,41.13
2022-12-17T16:07:38.181Z,41.12
2022-12-17T16:10:06.771Z,41.25
2022-12-17T16:12:34.897Z,41.28
2022-12-17T16:15:02.655Z,41.33
2022-12-17T16:17:30.345Z,41.68
2022-12-17T16:20:00.673Z,41.89
2022-12-17T16:22:29.054Z,41.78
2022-12-17T16:24:56.964Z,41.99
2022-12-17T16:27:24.687Z,42.47
2022-12-17T16:29:52.495Z,41.80
2022-12-17T16:32:20.287Z,42.26
2022-12-17T16:34:48.176Z,42.06
2022-12-17T16:37:17.461Z,42.05
2022-12-17T16:39:45.229Z,41.89
2022-12-17T16:42:13.122Z,42.13
2022-12-17T16:44:41.347Z,42.19
2022-12-17T16:47:09.054Z,41.94
2022-12-17T16:49:36.857Z,42.25
2022-12-17T16:52:04.673Z,42.31
2022-12-17T16:54:34.122Z,42.31
2022-12-17T16:57:01.950Z,42.16
2022-12-17T16:59:30.343Z,42.39
2022-12-17T17:01:58.319Z,42.37
2022-12-17T17:04:26.213Z,42.46
2022-12-17T17:06:54.669Z,42.15
2022-12-17T17:09:22.783Z,42.42
2022-12-17T17:11:52.521Z,41.89
2022-12-17T17:14:20.841Z,42.13
2022-12-17T17:16:48.822Z,42.44
2022-12-17T17:19:16.520Z,42.70
2022-12-17T17:21:48.802Z,42.68
2022-12-17T17:24:21.271Z,42.25
2022-12-17T17:26:51.271Z,42.47
2022-12-17T17:29:19.198Z,42.29
2022-12-17T17:32:16.667Z,42.57
2022-12-17T17:34:34.658Z,42.70
2022-12-17T17:37:02.313Z,42.41
2022-12-17T17:39:32.944Z,42.78
2022-12-17T17:42:02.092Z,42.71
2022-12-17T17:44:29.805Z,42.79
2022-12-17T17:46:57.598Z,43.00
2022-12-17T17:49:25.633Z,43.06
2022-12-17T17:52:09.366Z,42.99
2022-12-17T17:54:38.184Z,43.22
2022-12-17T17:57:07.421Z,43.57
2022-12-17T17:59:35.081Z,43.41
2022-12-17T18:02:03.179Z,43.12
2022-12-17T18:04:31.638Z,43.41
2022-12-17T18:09:47.061Z,43.92
2022-12-17T18:12:34.789Z,43.51
2022-12-17T18:15:19.028Z,43.77
2022-12-17T18:17:47.589Z,43.83
2022-12-17T18:20:16.327Z,43.40
2022-12-17T18:22:45.752Z,43.64
2022-12-17T18:25:16.164Z,44.33
2022-12-17T18:27:45.268Z,44.67
2022-12-17T18:30:13.484Z,44.59
2022-12-17T18:32:41.266Z,44.74
2022-12-17T18:35:09.802Z,44.36
2022-12-17T18:37:38.844Z,44.42
2022-12-17T18:40:09.821Z,44.38
2022-12-17T18:42:55.081Z,44.28
2022-12-17T18:45:24.305Z,44.93
2022-12-17T18:47:52.105Z,45.56
2022-12-17T18:50:20.200Z,45.07
2022-12-17T18:52:48.076Z,44.60
2022-12-17T18:55:15.787Z,44.96
2022-12-17T18:57:43.616Z,44.95
2022-12-17T19:00:12.674Z,45.43
2022-12-17T19:02:41.890Z,45.54
2022-12-17T19:05:10.110Z,44.90
2022-12-17T19:07:37.894Z,45.28
2022-12-17T19:10:06.468Z,45.51
2022-12-17T19:12:34.209Z,45.32
2022-12-17T19:15:01.864Z,45.55
2022-12-17T19:17:29.872Z,45.54
2022-12-17T19:19:59.036Z,45.14
2022-12-17T19:22:26.760Z,45.71
2022-12-17T19:24:54.480Z,46.08
2022-12-17T19:27:22.210Z,45.65
2022-12-17T19:29:50.231Z,45.96
2022-12-17T19:32:18.124Z,45.19
2022-12-17T19:34:45.972Z,45.84
2022-12-17T19:37:15.025Z,45.96
2022-12-17T19:39:42.798Z,45.56
2022-12-17T19:42:24.785Z,45.83
2022-12-17T19:44:53.266Z,45.75
2022-12-17T19:47:22.163Z,46.24
2022-12-17T19:49:49.844Z,46.07
2022-12-17T19:52:18.967Z,45.86
2022-12-17T19:54:46.823Z,46.17
2022-12-17T19:57:15.719Z,46.38
2022-12-17T19:59:43.646Z,45.90
2022-12-17T20:02:11.623Z,46.12
2022-12-17T20:04:42.759Z,45.95
2022-12-17T20:07:10.460Z,46.74
2022-12-17T20:09:44.508Z,45.82
2022-12-17T20:12:12.339Z,46.19
2022-12-17T20:14:43.091Z,45.84
2022-12-17T20:17:10.883Z,46.45
2022-12-17T20:19:42.170Z,46.63
2022-12-17T20:22:12.886Z,45.92
2022-12-17T20:24:42.174Z,46.27
2022-12-17T20:27:10.901Z,45.42
2022-12-17T20:29:39.411Z,45.51
2022-12-17T20:32:08.714Z,46.12
2022-12-17T20:34:36.592Z,45.99
2022-12-17T20:37:04.506Z,45.28
2022-12-17T20:39:35.712Z,46.19
2022-12-17T20:42:05.066Z,45.79
2022-12-17T20:44:33.003Z,45.63
2022-12-17T20:47:01.270Z,45.63
2022-12-17T20:49:29.062Z,45.61
2022-12-17T20:51:57.084Z,45.54
2022-12-17T20:54:24.970Z,45.70
2022-12-17T20:56:52.714Z,45.68
2022-12-17T20:59:21.973Z,45.86
2022-12-17T21:01:54.411Z,45.83
2022-12-17T21:04:23.725Z,45.40
2022-12-17T21:06:51.699Z,46.42
2022-12-17T21:09:20.854Z,45.68
2022-12-17T21:11:48.823Z,45.82
2022-12-17T21:14:17.693Z,46.00
2022-12-17T21:16:46.958Z,46.19
2022-12-17T21:19:20.919Z,46.15
2022-12-17T21:21:49.215Z,46.46
2022-12-17T21:24:17.168Z,46.24
2022-12-17T21:26:46.906Z,45.58
2022-12-17T21:29:15.633Z,45.93
2022-12-17T21:31:44.687Z,45.64
2022-12-17T21:34:15.015Z,45.67
2022-12-17T21:36:42.911Z,46.11
2022-12-17T21:39:10.682Z,45.81
2022-12-17T21:41:42.567Z,45.58
2022-12-17T21:44:13.880Z,45.89
2022-12-17T21:46:43.067Z,45.59
2022-12-17T21:49:13.340Z,46.15
2022-12-17T21:51:41.333Z,46.18
2022-12-17T21:54:10.688Z,45.94
2022-12-17T21:56:41.039Z,46.03
2022-12-17T21:59:08.809Z,45.85
2022-12-17T22:01:36.731Z,45.48
2022-12-17T22:04:05.281Z,45.48
2022-12-17T22:06:43.295Z,45.99
2022-12-17T22:09:29.683Z,46.14
2022-12-17T22:12:16.004Z,45.69
2022-12-17T22:14:44.340Z,46.00
2022-12-17T22:17:11.991Z,45.97
2022-12-17T22:19:39.964Z,45.96
2022-12-17T22:22:09.117Z,45.30
2022-12-17T22:24:37.209Z,45.58
2022-12-17T22:27:08.829Z,45.92
2022-12-17T22:29:55.390Z,45.69
2022-12-17T22:32:49.271Z,45.33
2022-12-17T22:36:31.674Z,45.96
2022-12-17T22:41:48.486Z,45.80
2022-12-17T22:44:31.563Z,45.60
2022-12-17T22:44:44.260Z,45.64
2022-12-17T22:46:32.668Z,45.91
2022-12-17T22:49:00.571Z,45.34
2022-12-17T22:51:35.120Z,46.05
2022-12-17T22:54:09.448Z,45.68
2022-12-17T22:57:24.380Z,45.82
2022-12-17T22:59:25.629Z,45.38
2022-12-17T23:01:53.603Z,45.20
2022-12-17T23:04:21.371Z,45.38
2022-12-17T23:06:49.515Z,45.62
2022-12-17T23:09:19.424Z,45.39
2022-12-17T23:11:47.669Z,45.54
2022-12-17T23:14:15.513Z,45.68
2022-12-17T23:16:43.313Z,45.55
2022-12-17T23:19:11.108Z,45.63
2022-12-17T23:21:38.932Z,45.54
2022-12-17T23:24:07.246Z,45.21
2022-12-17T23:26:37.018Z,45.45
2022-12-17T23:29:05.954Z,45.16
2022-12-17T23:31:35.813Z,45.38
2022-12-17T23:34:03.504Z,45.22
2022-12-17T23:36:31.419Z,44.59
2022-12-17T23:38:59.106Z,45.01
2022-12-17T23:41:28.018Z,45.03
2022-12-17T23:43:57.207Z,44.95
2022-12-17T23:46:25.300Z,45.13
2022-12-17T23:48:53.154Z,44.55
2022-12-17T23:51:21.717Z,44.66
2022-12-17T23:53:49.550Z,44.53
2022-12-17T23:56:18.446Z,45.01
2022-12-17T23:58:46.519Z,44.73
